Terminal Aerodrome Forecast
Issued by NWS Wilmington, OH

Home | Current Version | Previous Version | Text Only | Print | Product List | Glossary On
Versions: 1 2 3 4 5 6 7 8 9 10 11 12 13 14 15 16 17 18 19 20
602
FTUS41 KILN 252328
TAFDAY
TAF
KDAY 252328Z 2600/2624 30013KT P6SM VCSH BKN020 OVC035
     FM260300 28010KT P6SM BKN035
     FM260600 26007KT P6SM SCT070
      TEMPO 2608/2612 4SM BR
     FM261800 22010KT P6SM BKN200=

USA.gov is the U.S. government's official web portal to all federal, state and local government web resources and services.